createdAt,value
2018-05-17T00:00:23.878Z,10.20
2018-05-17T00:02:51.443Z,10.20
2018-05-17T00:05:18.893Z,10.10
2018-05-17T00:07:46.575Z,10.10
2018-05-17T00:10:14.217Z,10.10
2018-05-17T00:12:41.773Z,10.00
2018-05-17T00:15:09.219Z,10.10
2018-05-17T00:17:36.703Z,10.10
2018-05-17T00:20:04.258Z,10.00
2018-05-17T00:22:31.733Z,9.90
2018-05-17T00:25:00.017Z,9.90
2018-05-17T00:27:28.265Z,9.80
2018-05-17T00:29:55.728Z,9.80
2018-05-17T00:32:23.208Z,9.80
2018-05-17T00:34:51.494Z,9.60
2018-05-17T00:37:20.489Z,9.60
2018-05-17T00:39:48.194Z,9.60
2018-05-17T00:42:15.753Z,9.60
2018-05-17T00:44:43.329Z,9.60
2018-05-17T00:47:10.879Z,9.50
2018-05-17T00:49:38.419Z,9.40
2018-05-17T00:52:07.323Z,9.40
2018-05-17T00:54:35.621Z,9.40
2018-05-17T00:57:03.206Z,9.30
2018-05-17T00:59:30.756Z,9.40
2018-05-17T01:01:59.015Z,9.30
2018-05-17T01:04:27.366Z,9.20
2018-05-17T01:06:54.843Z,9.20
2018-05-17T01:09:23.129Z,9.20
2018-05-17T01:11:50.607Z,9.20
2018-05-17T01:14:18.087Z,9.20
2018-05-17T01:16:45.709Z,9.30
2018-05-17T01:19:13.123Z,9.30
2018-05-17T01:21:40.649Z,9.20
2018-05-17T01:24:08.890Z,9.20
2018-05-17T01:26:36.423Z,9.20
2018-05-17T01:29:03.912Z,9.20
2018-05-17T01:31:31.560Z,9.10
2018-05-17T01:33:59.058Z,9.20
2018-05-17T01:36:26.528Z,9.10
2018-05-17T01:38:54.067Z,9.10
2018-05-17T01:41:21.580Z,9.10
2018-05-17T01:43:49.165Z,9.10
2018-05-17T01:46:16.633Z,9.10
2018-05-17T01:48:44.160Z,9.10
2018-05-17T01:51:12.456Z,9.10
2018-05-17T01:53:40.064Z,9.10
2018-05-17T01:56:07.593Z,9.10
2018-05-17T01:58:35.156Z,9.10
2018-05-17T02:01:02.718Z,9.10
2018-05-17T02:03:30.179Z,9.20
2018-05-17T02:05:57.673Z,9.30
2018-05-17T02:08:25.238Z,9.30
2018-05-17T02:10:52.907Z,9.30
2018-05-17T02:13:20.360Z,9.30
2018-05-17T02:15:48.614Z,9.30
2018-05-17T02:18:16.141Z,9.30
2018-05-17T02:20:43.599Z,9.30
2018-05-17T02:23:11.041Z,9.30
2018-05-17T02:25:38.588Z,9.30
2018-05-17T02:28:06.823Z,9.20
2018-05-17T02:30:34.387Z,9.20
2018-05-17T02:33:02.009Z,9.20
2018-05-17T02:35:29.656Z,9.20
2018-05-17T02:37:57.284Z,9.20
2018-05-17T02:40:24.770Z,9.20
2018-05-17T02:42:52.246Z,9.20
2018-05-17T02:45:19.783Z,9.30
2018-05-17T02:47:48.011Z,9.30
2018-05-17T02:50:15.527Z,9.30
2018-05-17T02:52:43.798Z,9.30
2018-05-17T02:55:11.311Z,9.30
2018-05-17T02:57:38.837Z,9.30
2018-05-17T03:00:06.305Z,9.30
2018-05-17T03:02:37.457Z,9.30
2018-05-17T03:05:05.698Z,9.30
2018-05-17T03:07:33.265Z,9.30
2018-05-17T03:10:00.748Z,9.30
2018-05-17T03:12:28.200Z,9.30
2018-05-17T03:14:55.764Z,9.30
2018-05-17T03:17:23.389Z,9.30
2018-05-17T03:19:51.638Z,9.30
2018-05-17T03:22:19.887Z,9.30
2018-05-17T03:24:47.586Z,9.20
2018-05-17T03:27:15.968Z,9.20
2018-05-17T03:29:43.532Z,9.20
2018-05-17T03:32:11.797Z,9.20
2018-05-17T03:34:39.330Z,9.20
2018-05-17T03:37:06.813Z,9.20
2018-05-17T03:39:34.338Z,9.20
2018-05-17T03:42:01.840Z,9.20
2018-05-17T03:44:29.327Z,9.20
2018-05-17T03:46:57.630Z,9.20
2018-05-17T03:49:25.133Z,9.10
2018-05-17T03:51:52.685Z,9.20
2018-05-17T03:54:21.017Z,9.20
2018-05-17T03:56:48.492Z,9.10
2018-05-17T03:59:16.762Z,9.10
2018-05-17T04:01:44.305Z,9.10
2018-05-17T04:04:11.781Z,9.10
2018-05-17T04:06:40.063Z,9.20
2018-05-17T04:09:08.436Z,9.20
2018-05-17T04:11:35.895Z,9.20
2018-05-17T04:14:03.444Z,9.20
2018-05-17T04:16:30.962Z,9.20
2018-05-17T04:18:58.496Z,9.30
2018-05-17T04:21:26.838Z,9.30
2018-05-17T04:23:54.387Z,9.30
2018-05-17T04:26:21.858Z,9.40
2018-05-17T04:28:49.418Z,9.40
2018-05-17T04:31:16.989Z,9.40
2018-05-17T04:33:44.487Z,9.40
2018-05-17T04:36:11.986Z,9.50
2018-05-17T04:38:39.458Z,9.50
2018-05-17T04:41:07.035Z,9.60
2018-05-17T04:43:34.833Z,9.70
2018-05-17T04:46:02.332Z,9.70
2018-05-17T04:48:29.862Z,9.70
2018-05-17T04:50:57.311Z,9.70
2018-05-17T04:53:24.873Z,9.70
2018-05-17T04:55:52.380Z,9.60
2018-05-17T04:58:19.890Z,9.60
2018-05-17T05:00:47.486Z,9.70
2018-05-17T05:03:15.736Z,9.80
2018-05-17T05:05:43.313Z,9.80
2018-05-17T05:08:10.885Z,9.80
2018-05-17T05:10:38.343Z,9.80
2018-05-17T05:13:05.849Z,9.90
2018-05-17T05:15:34.462Z,10.00
2018-05-17T05:18:02.059Z,9.90
2018-05-17T05:20:29.550Z,10.00
2018-05-17T05:22:57.856Z,10.20
2018-05-17T05:25:25.325Z,10.20
2018-05-17T05:27:52.835Z,10.20
2018-05-17T05:30:20.555Z,10.30
2018-05-17T05:32:49.278Z,10.30
2018-05-17T05:35:17.497Z,10.30
2018-05-17T05:37:44.957Z,10.30
2018-05-17T05:40:13.379Z,10.20
2018-05-17T05:42:40.938Z,10.20
2018-05-17T05:45:08.525Z,10.40
2018-05-17T05:47:36.089Z,10.30
2018-05-17T05:50:04.416Z,10.30
2018-05-17T05:52:32.668Z,10.30
2018-05-17T05:55:00.205Z,10.30
2018-05-17T05:57:27.728Z,10.40
2018-05-17T05:59:56.025Z,10.30
2018-05-17T06:02:24.368Z,10.30
2018-05-17T06:04:52.558Z,10.30
2018-05-17T06:07:20.035Z,10.30
2018-05-17T06:09:47.497Z,10.40
2018-05-17T06:12:15.046Z,10.40
2018-05-17T06:14:42.580Z,10.40
2018-05-17T06:17:10.279Z,10.50
2018-05-17T06:19:37.858Z,10.60
2018-05-17T06:22:05.394Z,10.80
2018-05-17T06:24:32.845Z,10.90
2018-05-17T06:27:00.374Z,10.90
2018-05-17T06:29:27.908Z,10.80
2018-05-17T06:31:55.541Z,10.80
2018-05-17T06:34:23.886Z,10.80
2018-05-17T06:36:51.409Z,10.80
2018-05-17T06:39:19.861Z,10.70
2018-05-17T06:41:47.354Z,10.80
2018-05-17T06:44:14.942Z,11.10
2018-05-17T06:46:42.390Z,11.10
2018-05-17T06:49:10.727Z,11.20
2018-05-17T06:51:38.170Z,11.20
2018-05-17T06:54:05.716Z,11.20
2018-05-17T06:56:33.143Z,11.10
2018-05-17T06:59:00.702Z,11.20
2018-05-17T07:01:28.269Z,11.30
2018-05-17T07:03:55.735Z,11.10
2018-05-17T07:06:23.264Z,11.10
2018-05-17T07:08:51.824Z,11.10
2018-05-17T07:11:19.403Z,11.10
2018-05-17T07:13:46.919Z,11.10
2018-05-17T07:16:14.462Z,11.30
2018-05-17T07:18:42.681Z,11.40
2018-05-17T07:21:09.622Z,11.30
2018-05-17T07:23:37.089Z,11.30
2018-05-17T07:26:05.507Z,11.60
2018-05-17T07:28:32.963Z,11.50
2018-05-17T07:31:00.554Z,11.80
2018-05-17T07:33:28.043Z,12.00
2018-05-17T07:35:55.575Z,12.10
2018-05-17T07:38:23.108Z,12.00
2018-05-17T07:40:51.351Z,12.40
2018-05-17T07:43:18.872Z,12.30
2018-05-17T07:45:46.400Z,12.50
2018-05-17T07:48:13.910Z,12.60
2018-05-17T07:50:41.360Z,12.80
2018-05-17T07:53:08.897Z,13.50
2018-05-17T07:55:37.482Z,13.90
2018-05-17T07:58:04.906Z,13.90
2018-05-17T08:00:32.508Z,13.70
2018-05-17T08:03:00.279Z,13.20
2018-05-17T08:05:27.778Z,12.80
2018-05-17T08:07:58.313Z,12.80
2018-05-17T08:10:25.917Z,13.60
2018-05-17T08:12:53.534Z,14.90
2018-05-17T08:15:21.168Z,16.30
2018-05-17T08:17:49.407Z,15.20
2018-05-17T08:20:16.956Z,15.30
2018-05-17T08:22:44.489Z,16.00
2018-05-17T08:25:11.989Z,16.40
2018-05-17T08:27:39.468Z,16.00
2018-05-17T08:30:07.315Z,15.80
2018-05-17T08:32:34.832Z,15.20
2018-05-17T08:35:02.258Z,14.30
2018-05-17T08:37:29.745Z,14.10
2018-05-17T08:39:57.254Z,14.40
2018-05-17T08:42:24.824Z,15.90
2018-05-17T08:44:52.299Z,16.70
2018-05-17T08:47:19.777Z,17.10
2018-05-17T08:49:47.322Z,17.70
2018-05-17T08:52:14.922Z,17.50
2018-05-17T08:54:42.513Z,16.80
2018-05-17T08:57:10.030Z,15.80
2018-05-17T08:59:37.509Z,16.20
2018-05-17T09:02:05.032Z,16.10
2018-05-17T09:04:32.444Z,15.80
2018-05-17T09:07:00.007Z,16.00
2018-05-17T09:09:27.523Z,15.90
2018-05-17T09:11:55.732Z,16.70
2018-05-17T09:14:23.260Z,16.70
2018-05-17T09:16:51.576Z,16.40
2018-05-17T09:19:19.865Z,16.40
2018-05-17T09:21:47.353Z,16.70
2018-05-17T09:24:15.624Z,17.50
2018-05-17T09:26:43.189Z,17.50
2018-05-17T09:29:10.807Z,17.70
2018-05-17T09:31:39.138Z,17.30
2018-05-17T09:34:06.649Z,17.30
2018-05-17T09:36:34.260Z,16.80
2018-05-17T09:39:01.762Z,16.70
2018-05-17T09:41:29.244Z,17.30
2018-05-17T09:43:56.831Z,17.60
2018-05-17T09:46:24.313Z,18.00
2018-05-17T09:48:51.922Z,18.50
2018-05-17T09:51:20.142Z,19.10
2018-05-17T09:53:47.676Z,19.10
2018-05-17T09:56:15.390Z,17.00
2018-05-17T09:58:42.857Z,16.80
2018-05-17T10:01:10.349Z,17.20
2018-05-17T10:03:38.832Z,18.00
2018-05-17T10:06:06.364Z,18.00
2018-05-17T10:08:34.310Z,17.60
2018-05-17T10:11:01.975Z,16.90
2018-05-17T10:13:29.818Z,18.00
2018-05-17T10:15:57.375Z,18.00
2018-05-17T10:18:24.978Z,19.30
2018-05-17T10:20:52.480Z,19.60
2018-05-17T10:23:19.978Z,18.10
2018-05-17T10:25:47.441Z,18.20
2018-05-17T10:28:15.008Z,18.50
2018-05-17T10:30:42.563Z,19.50
2018-05-17T10:33:10.111Z,19.80
2018-05-17T10:35:37.609Z,18.90
2018-05-17T10:38:05.119Z,18.80
2018-05-17T10:40:32.664Z,19.20
2018-05-17T10:43:00.145Z,19.00
2018-05-17T10:45:28.451Z,18.70
2018-05-17T10:47:56.778Z,19.90
2018-05-17T10:50:24.604Z,19.90
2018-05-17T10:52:52.040Z,20.30
2018-05-17T10:55:19.608Z,20.10
2018-05-17T10:57:47.216Z,20.80
2018-05-17T11:00:14.764Z,19.10
2018-05-17T11:02:43.075Z,20.80
2018-05-17T11:05:10.615Z,20.80
2018-05-17T11:07:38.896Z,20.00
2018-05-17T11:10:07.315Z,19.90
2018-05-17T11:12:34.827Z,19.90
2018-05-17T11:15:02.358Z,19.10
2018-05-17T11:17:29.982Z,18.90
2018-05-17T11:19:57.472Z,19.60
2018-05-17T11:22:25.054Z,19.50
2018-05-17T11:24:53.259Z,20.20
2018-05-17T11:27:21.176Z,20.20
2018-05-17T11:29:49.059Z,20.00
2018-05-17T11:32:16.518Z,20.20
2018-05-17T11:34:44.031Z,19.80
2018-05-17T11:37:11.523Z,20.00
2018-05-17T11:39:39.083Z,19.40
2018-05-17T11:42:06.666Z,18.30
2018-05-17T11:44:34.261Z,19.10
2018-05-17T11:47:01.820Z,19.70
2018-05-17T11:49:29.323Z,20.20
2018-05-17T11:51:57.606Z,20.00
2018-05-17T11:54:25.906Z,19.10
2018-05-17T11:56:53.396Z,19.10
2018-05-17T11:59:22.221Z,19.30
2018-05-17T12:01:49.773Z,19.80
2018-05-17T12:04:17.251Z,20.10
2018-05-17T12:06:44.847Z,20.10
2018-05-17T12:09:13.151Z,19.60
2018-05-17T12:11:40.880Z,19.60
2018-05-17T12:14:09.111Z,20.70
2018-05-17T12:16:36.696Z,20.70
2018-05-17T12:19:04.136Z,21.40
2018-05-17T12:21:31.669Z,21.10
2018-05-17T12:23:59.169Z,20.80
2018-05-17T12:26:26.669Z,21.00
2018-05-17T12:28:54.956Z,19.50
2018-05-17T12:31:23.279Z,19.90
2018-05-17T12:33:50.765Z,19.90
2018-05-17T12:36:18.258Z,19.80
2018-05-17T12:38:45.757Z,19.80
2018-05-17T12:41:13.261Z,20.00
2018-05-17T12:43:41.032Z,20.40
2018-05-17T12:46:09.319Z,20.20
2018-05-17T12:48:37.220Z,20.20
2018-05-17T12:51:05.507Z,20.30
2018-05-17T12:53:33.766Z,20.50
2018-05-17T12:56:02.082Z,20.40
2018-05-17T12:58:30.341Z,20.20
2018-05-17T13:00:58.158Z,20.10
2018-05-17T13:03:26.412Z,20.80
2018-05-17T13:05:53.926Z,20.80
2018-05-17T13:08:21.530Z,21.10
2018-05-17T13:10:49.043Z,22.00
2018-05-17T13:13:16.582Z,22.00
2018-05-17T13:15:44.124Z,21.60
2018-05-17T13:18:11.756Z,21.40
2018-05-17T13:20:39.256Z,20.70
2018-05-17T13:23:07.798Z,20.40
2018-05-17T13:25:35.307Z,20.40
2018-05-17T13:28:02.785Z,20.60
2018-05-17T13:30:30.377Z,20.90
2018-05-17T13:32:57.953Z,20.60
2018-05-17T13:35:25.524Z,20.00
2018-05-17T13:37:52.993Z,19.50
2018-05-17T13:40:20.517Z,19.60
2018-05-17T13:42:48.014Z,20.10
2018-05-17T13:45:15.531Z,20.50
2018-05-17T13:47:43.408Z,20.50
2018-05-17T13:50:10.872Z,20.10
2018-05-17T13:52:39.714Z,19.80
2018-05-17T13:55:07.506Z,19.80
2018-05-17T13:57:35.016Z,19.70
2018-05-17T14:00:02.528Z,19.30
2018-05-17T14:02:30.246Z,19.80
2018-05-17T14:04:57.610Z,20.10
2018-05-17T14:07:25.081Z,19.10
2018-05-17T14:09:52.581Z,18.50
2018-05-17T14:12:20.863Z,17.90
2018-05-17T14:14:48.459Z,17.80
2018-05-17T14:17:16.739Z,18.10
2018-05-17T14:19:44.245Z,18.10
2018-05-17T14:22:11.961Z,18.10
2018-05-17T14:24:39.431Z,18.30
2018-05-17T14:27:06.932Z,18.60
2018-05-17T14:29:34.421Z,18.70
2018-05-17T14:32:01.919Z,18.60
2018-05-17T14:34:29.439Z,18.60
2018-05-17T14:36:56.963Z,18.10
2018-05-17T14:39:24.561Z,17.70
2018-05-17T14:41:52.027Z,17.70
2018-05-17T14:44:19.485Z,17.80
2018-05-17T14:46:47.743Z,18.10
2018-05-17T14:49:15.341Z,18.10
2018-05-17T14:51:43.670Z,18.20
2018-05-17T14:54:11.114Z,18.20
2018-05-17T14:56:40.079Z,18.20
2018-05-17T14:59:07.554Z,18.00
2018-05-17T15:01:35.361Z,17.90
2018-05-17T15:04:02.867Z,17.80
2018-05-17T15:06:30.358Z,17.60
2018-05-17T15:08:58.015Z,17.50
2018-05-17T15:11:25.558Z,17.60
2018-05-17T15:13:53.044Z,17.70
2018-05-17T15:16:20.575Z,17.80
2018-05-17T15:18:48.291Z,17.50
2018-05-17T15:21:15.776Z,17.30
2018-05-17T15:23:43.274Z,17.40
2018-05-17T15:26:10.736Z,17.90
2018-05-17T15:28:38.257Z,18.00
2018-05-17T15:31:05.819Z,17.90
2018-05-17T15:33:33.338Z,18.00
2018-05-17T15:36:00.845Z,18.00
2018-05-17T15:38:28.393Z,17.90
2018-05-17T15:40:55.903Z,17.70
2018-05-17T15:43:23.411Z,17.70
2018-05-17T15:45:51.999Z,17.90
2018-05-17T15:48:19.644Z,17.90
2018-05-17T15:50:47.106Z,17.90
2018-05-17T15:53:14.638Z,17.90
2018-05-17T15:55:42.222Z,17.90
2018-05-17T15:58:09.823Z,17.70
2018-05-17T16:00:37.367Z,17.60
2018-05-17T16:03:04.925Z,17.50
2018-05-17T16:05:32.531Z,17.60
2018-05-17T16:07:59.976Z,17.50
2018-05-17T16:10:28.490Z,17.30
2018-05-17T16:12:55.957Z,17.30
2018-05-17T16:15:23.668Z,17.20
2018-05-17T16:17:51.158Z,16.90
2018-05-17T16:20:18.607Z,16.80
2018-05-17T16:22:47.879Z,16.80
2018-05-17T16:25:15.403Z,16.80
2018-05-17T16:27:43.888Z,16.90
2018-05-17T16:30:12.419Z,16.80
2018-05-17T16:32:40.151Z,16.80
2018-05-17T16:35:08.348Z,16.80
2018-05-17T16:37:35.852Z,16.80
2018-05-17T16:40:04.123Z,16.90
2018-05-17T16:42:32.664Z,16.90
2018-05-17T16:45:00.170Z,16.80
2018-05-17T16:47:27.640Z,16.60
2018-05-17T16:49:55.166Z,16.40
2018-05-17T16:52:22.732Z,16.40
2018-05-17T16:54:50.247Z,16.50
2018-05-17T16:57:17.770Z,16.30
2018-05-17T16:59:45.324Z,16.20
2018-05-17T17:02:12.888Z,16.10
2018-05-17T17:04:40.367Z,16.10
2018-05-17T17:07:07.905Z,16.20
2018-05-17T17:09:35.503Z,16.10
2018-05-17T17:12:03.788Z,16.20
2018-05-17T17:14:31.258Z,16.10
2018-05-17T17:16:58.744Z,16.20
2018-05-17T17:19:28.208Z,16.10
2018-05-17T17:21:55.602Z,16.10
2018-05-17T17:24:23.894Z,15.90
2018-05-17T17:26:52.391Z,15.70
2018-05-17T17:29:19.875Z,15.70
2018-05-17T17:31:47.512Z,15.50
2018-05-17T17:34:15.102Z,15.50
2018-05-17T17:36:43.451Z,15.40
2018-05-17T17:39:10.953Z,15.30
2018-05-17T17:41:38.502Z,15.40
2018-05-17T17:44:06.035Z,15.20
2018-05-17T17:46:35.053Z,15.30
2018-05-17T17:49:03.322Z,15.40
2018-05-17T17:51:30.801Z,15.40
2018-05-17T17:53:58.361Z,15.30
2018-05-17T17:56:25.875Z,15.30
2018-05-17T17:58:53.553Z,15.20
2018-05-17T18:01:22.655Z,15.20
2018-05-17T18:03:50.185Z,15.10
2018-05-17T18:06:17.721Z,15.00
2018-05-17T18:08:45.191Z,14.90
2018-05-17T18:11:12.683Z,14.80
2018-05-17T18:13:40.228Z,14.70
2018-05-17T18:16:08.534Z,14.30
2018-05-17T18:18:36.070Z,14.30
2018-05-17T18:21:03.589Z,14.30
2018-05-17T18:23:31.190Z,14.20
2018-05-17T18:25:58.714Z,14.20
2018-05-17T18:28:26.193Z,14.20
2018-05-17T18:30:53.792Z,14.10
2018-05-17T18:33:21.580Z,14.10
2018-05-17T18:35:49.111Z,14.10
2018-05-17T18:38:16.685Z,14.00
2018-05-17T18:40:44.286Z,14.00
2018-05-17T18:43:11.906Z,14.00
2018-05-17T18:45:39.613Z,13.90
2018-05-17T18:48:07.100Z,13.80
2018-05-17T18:50:34.644Z,13.80
2018-05-17T18:53:02.245Z,13.70
2018-05-17T18:55:29.776Z,13.70
2018-05-17T18:57:57.349Z,13.60
2018-05-17T19:00:24.955Z,13.50
2018-05-17T19:02:53.154Z,13.40
2018-05-17T19:05:21.084Z,13.40
2018-05-17T19:07:48.564Z,13.30
2018-05-17T19:10:17.119Z,13.10
2018-05-17T19:12:44.697Z,13.10
2018-05-17T19:15:12.217Z,13.00
2018-05-17T19:17:40.514Z,12.80
2018-05-17T19:20:08.085Z,12.80
2018-05-17T19:22:36.271Z,12.80
2018-05-17T19:25:04.006Z,12.80
2018-05-17T19:27:31.554Z,12.70
2018-05-17T19:29:59.791Z,12.70
2018-05-17T19:32:27.405Z,12.70
2018-05-17T19:34:55.232Z,12.70
2018-05-17T19:37:22.800Z,12.60
2018-05-17T19:39:50.226Z,12.50
2018-05-17T19:42:17.757Z,12.60
2018-05-17T19:44:45.279Z,12.60
2018-05-17T19:47:12.903Z,12.50
2018-05-17T19:49:41.837Z,12.50
2018-05-17T19:52:10.075Z,12.40
2018-05-17T19:54:37.635Z,12.40
2018-05-17T19:57:05.099Z,12.40
2018-05-17T19:59:32.731Z,12.40
2018-05-17T20:02:00.207Z,12.30
2018-05-17T20:04:28.618Z,12.30
2018-05-17T20:06:56.131Z,12.20
2018-05-17T20:09:23.667Z,12.30
2018-05-17T20:11:51.151Z,12.30
2018-05-17T20:14:18.668Z,12.20
2018-05-17T20:16:46.179Z,12.20
2018-05-17T20:19:13.663Z,12.10
2018-05-17T20:21:42.817Z,12.20
2018-05-17T20:24:10.252Z,12.10
2018-05-17T20:26:38.529Z,12.20
2018-05-17T20:29:06.224Z,12.10
2018-05-17T20:31:33.718Z,12.20
2018-05-17T20:34:01.260Z,12.10
2018-05-17T20:36:28.861Z,12.10
2018-05-17T20:38:56.291Z,12.00
2018-05-17T20:41:23.812Z,12.10
2018-05-17T20:43:51.317Z,12.10
2018-05-17T20:46:18.881Z,12.00
2018-05-17T20:48:47.106Z,12.00
2018-05-17T20:51:14.658Z,12.00
2018-05-17T20:53:42.251Z,12.00
2018-05-17T20:56:09.722Z,12.00
2018-05-17T20:58:37.262Z,12.00
2018-05-17T21:01:05.618Z,11.90
2018-05-17T21:03:33.150Z,11.90
2018-05-17T21:06:01.050Z,11.80
2018-05-17T21:08:29.346Z,11.80
2018-05-17T21:10:57.041Z,11.70
2018-05-17T21:13:24.435Z,11.70
2018-05-17T21:15:51.963Z,11.70
2018-05-17T21:18:20.369Z,11.60
2018-05-17T21:20:47.949Z,11.60
2018-05-17T21:23:16.511Z,11.60
2018-05-17T21:25:44.081Z,11.60
2018-05-17T21:28:12.695Z,11.60
2018-05-17T21:30:40.226Z,11.50
2018-05-17T21:33:07.718Z,11.60
2018-05-17T21:35:35.234Z,11.60
2018-05-17T21:38:03.542Z,11.60
2018-05-17T21:40:31.035Z,11.60
2018-05-17T21:42:58.539Z,11.50
2018-05-17T21:45:26.819Z,11.50
2018-05-17T21:47:55.091Z,11.40
2018-05-17T21:50:23.361Z,11.40
2018-05-17T21:52:50.859Z,11.30
2018-05-17T21:55:19.071Z,11.20
2018-05-17T21:57:46.936Z,11.20
2018-05-17T22:00:14.437Z,11.20
2018-05-17T22:02:41.969Z,11.10
2018-05-17T22:05:09.484Z,11.20
2018-05-17T22:07:37.017Z,11.10
2018-05-17T22:10:04.477Z,11.10
2018-05-17T22:12:32.071Z,11.10
2018-05-17T22:14:59.934Z,11.10
2018-05-17T22:17:27.788Z,11.10
2018-05-17T22:19:55.295Z,11.00
2018-05-17T22:22:22.878Z,11.00
2018-05-17T22:24:50.434Z,11.00
2018-05-17T22:27:17.941Z,11.00
2018-05-17T22:29:45.471Z,10.90
2018-05-17T22:32:13.058Z,10.90
2018-05-17T22:34:40.572Z,10.90
2018-05-17T22:37:08.999Z,10.80
2018-05-17T22:39:36.490Z,10.80
2018-05-17T22:42:04.023Z,10.80
2018-05-17T22:44:31.607Z,10.70
2018-05-17T22:46:59.122Z,10.70
2018-05-17T22:49:26.626Z,10.60
2018-05-17T22:51:54.258Z,10.60
2018-05-17T22:54:22.380Z,10.70
2018-05-17T22:56:49.914Z,10.60
2018-05-17T22:59:17.438Z,10.70
2018-05-17T23:01:45.084Z,10.70
2018-05-17T23:04:12.572Z,10.60
2018-05-17T23:06:40.853Z,10.60
2018-05-17T23:09:08.411Z,10.60
2018-05-17T23:11:35.927Z,10.60
2018-05-17T23:14:03.474Z,10.60
2018-05-17T23:16:31.010Z,10.50
2018-05-17T23:18:58.537Z,10.50
2018-05-17T23:21:26.112Z,10.40
2018-05-17T23:23:53.591Z,10.40
2018-05-17T23:26:21.803Z,10.30
2018-05-17T23:28:49.321Z,10.30
2018-05-17T23:31:17.061Z,10.40
2018-05-17T23:33:44.581Z,10.40
2018-05-17T23:36:12.880Z,10.40
2018-05-17T23:38:40.340Z,10.40
2018-05-17T23:41:08.574Z,10.40
2018-05-17T23:43:36.086Z,10.40
2018-05-17T23:46:03.655Z,10.40
2018-05-17T23:48:31.111Z,10.30
2018-05-17T23:50:58.678Z,10.20
2018-05-17T23:53:26.231Z,10.20
2018-05-17T23:55:54.570Z,10.10
2018-05-17T23:58:22.064Z,10.10
